createdAt,value
2022-12-20T00:01:00.342Z,7.95
2022-12-20T00:03:28.145Z,8.02
2022-12-20T00:05:57.367Z,7.94
2022-12-20T00:08:25.158Z,7.94
2022-12-20T00:10:52.931Z,7.89
2022-12-20T00:13:20.867Z,7.81
2022-12-20T00:15:48.739Z,7.87
2022-12-20T00:18:16.619Z,7.81
2022-12-20T00:20:44.386Z,7.74
2022-12-20T00:23:13.487Z,7.69
2022-12-20T00:25:41.215Z,7.74
2022-12-20T00:28:08.972Z,7.41
2022-12-20T00:30:37.112Z,7.71
2022-12-20T00:33:05.798Z,7.90
2022-12-20T00:35:34.485Z,8.13
2022-12-20T00:38:02.280Z,8.13
2022-12-20T00:40:31.535Z,8.25
2022-12-20T00:42:59.243Z,8.28
2022-12-20T00:45:26.960Z,8.32
2022-12-20T00:47:54.796Z,8.35
2022-12-20T00:50:22.597Z,8.54
2022-12-20T00:52:50.364Z,8.60
2022-12-20T00:55:18.380Z,8.63
2022-12-20T00:57:47.473Z,8.70
2022-12-20T01:00:16.447Z,8.73
2022-12-20T01:02:44.397Z,8.67
2022-12-20T01:05:12.275Z,8.73
2022-12-20T01:07:40.012Z,8.76
2022-12-20T01:10:09.069Z,8.76
2022-12-20T01:12:36.828Z,8.81
2022-12-20T01:15:08.191Z,8.85
2022-12-20T01:17:37.945Z,8.90
2022-12-20T01:20:07.540Z,8.80
2022-12-20T01:22:35.471Z,8.89
2022-12-20T01:25:03.268Z,8.81
2022-12-20T01:27:31.511Z,8.77
2022-12-20T01:29:59.214Z,8.68
2022-12-20T01:32:28.403Z,8.72
2022-12-20T01:34:56.139Z,8.82
2022-12-20T01:37:24.029Z,8.86
2022-12-20T01:39:51.771Z,8.89
2022-12-20T01:42:19.699Z,8.92
2022-12-20T01:44:58.097Z,8.89
2022-12-20T01:47:29.583Z,8.91
2022-12-20T01:49:59.923Z,8.89
2022-12-20T01:52:33.353Z,8.94
2022-12-20T01:55:08.012Z,8.95
2022-12-20T01:57:41.174Z,8.95
2022-12-20T02:00:11.001Z,8.90
2022-12-20T02:02:44.327Z,8.94
2022-12-20T02:05:14.734Z,8.88
2022-12-20T02:07:48.303Z,8.87
2022-12-20T02:10:18.407Z,8.82
2022-12-20T02:12:48.122Z,8.85
2022-12-20T02:15:33.214Z,8.78
2022-12-20T02:18:19.192Z,8.72
2022-12-20T02:21:06.490Z,8.66
2022-12-20T02:24:17.318Z,8.56
2022-12-20T02:27:27.065Z,8.51
2022-12-20T02:30:12.089Z,8.42
2022-12-20T02:32:43.728Z,8.36
2022-12-20T02:35:16.167Z,8.32
2022-12-20T02:37:51.980Z,8.26
2022-12-20T02:40:24.910Z,8.23
2022-12-20T02:42:56.833Z,8.17
2022-12-20T02:45:27.821Z,8.18
2022-12-20T02:48:02.183Z,8.17
2022-12-20T02:50:39.460Z,8.17
2022-12-20T02:53:09.257Z,8.15
2022-12-20T02:55:46.038Z,8.12
2022-12-20T02:58:22.535Z,8.09
2022-12-20T03:00:52.494Z,8.18
2022-12-20T03:03:26.108Z,8.15
2022-12-20T03:05:56.744Z,8.11
2022-12-20T03:08:25.608Z,8.16
2022-12-20T03:10:54.862Z,8.19
2022-12-20T03:13:24.145Z,8.23
2022-12-20T03:16:06.081Z,8.24
2022-12-20T03:18:33.956Z,8.22
2022-12-20T03:21:01.715Z,8.23
2022-12-20T03:23:29.880Z,8.23
2022-12-20T03:25:57.722Z,8.32
2022-12-20T03:28:34.511Z,8.31
2022-12-20T03:31:02.480Z,8.31
2022-12-20T03:33:35.534Z,8.29
2022-12-20T03:36:07.982Z,8.28
2022-12-20T03:38:35.803Z,8.25
2022-12-20T03:41:05.433Z,8.22
2022-12-20T03:43:33.247Z,8.20
2022-12-20T03:46:01.588Z,8.18
2022-12-20T03:48:36.652Z,8.16
2022-12-20T03:51:05.206Z,8.13
2022-12-20T03:53:32.999Z,8.10
2022-12-20T03:56:01.072Z,8.07
2022-12-20T03:58:29.521Z,8.01
2022-12-20T04:00:57.617Z,8.02
2022-12-20T04:03:42.559Z,8.17
2022-12-20T04:06:10.427Z,8.21
2022-12-20T04:08:38.522Z,8.12
2022-12-20T04:11:18.322Z,8.12
2022-12-20T04:13:56.844Z,8.08
2022-12-20T04:16:26.857Z,8.05
2022-12-20T04:18:57.761Z,8.08
2022-12-20T04:21:28.370Z,8.09
2022-12-20T04:23:59.610Z,8.11
2022-12-20T04:26:37.005Z,8.17
2022-12-20T04:29:05.694Z,8.16
2022-12-20T04:31:34.046Z,8.23
2022-12-20T04:34:03.346Z,8.17
2022-12-20T04:36:33.035Z,8.17
2022-12-20T04:39:03.718Z,8.11
2022-12-20T04:41:39.764Z,8.09
2022-12-20T04:44:11.899Z,8.14
2022-12-20T04:46:40.231Z,8.16
2022-12-20T04:49:13.888Z,8.17
2022-12-20T04:51:44.486Z,8.17
2022-12-20T04:54:12.978Z,8.15
2022-12-20T04:56:55.807Z,8.15
2022-12-20T04:59:24.856Z,8.17
2022-12-20T05:01:55.091Z,8.08
2022-12-20T05:04:48.717Z,8.14
2022-12-20T05:07:17.545Z,8.16
2022-12-20T05:09:51.378Z,8.11
2022-12-20T05:12:19.150Z,8.15
2022-12-20T05:14:47.061Z,8.12
2022-12-20T05:17:17.904Z,8.15
2022-12-20T05:19:45.943Z,8.13
2022-12-20T05:22:34.797Z,8.17
2022-12-20T05:25:30.144Z,8.18
2022-12-20T05:28:01.547Z,8.18
2022-12-20T05:30:33.553Z,8.18
2022-12-20T05:33:01.392Z,8.15
2022-12-20T05:35:29.838Z,8.21
2022-12-20T05:38:05.834Z,8.18
2022-12-20T05:40:33.984Z,8.17
2022-12-20T05:43:01.830Z,8.18
2022-12-20T05:45:37.286Z,8.24
2022-12-20T05:48:11.513Z,8.22
2022-12-20T05:50:41.412Z,8.19
2022-12-20T05:53:26.531Z,8.22
2022-12-20T05:55:57.303Z,8.21
2022-12-20T05:58:32.586Z,8.22
2022-12-20T06:01:03.129Z,8.23
2022-12-20T06:03:34.492Z,8.25
2022-12-20T06:06:11.774Z,8.24
2022-12-20T06:08:43.723Z,8.25
2022-12-20T06:11:17.031Z,8.22
2022-12-20T06:14:01.131Z,8.24
2022-12-20T06:16:29.612Z,8.27
2022-12-20T06:18:58.879Z,8.29
2022-12-20T06:21:28.432Z,8.34
2022-12-20T06:23:58.228Z,8.33
2022-12-20T06:26:26.981Z,8.33
2022-12-20T06:28:57.172Z,8.30
2022-12-20T06:31:44.899Z,8.24
2022-12-20T06:34:12.939Z,8.29
2022-12-20T06:36:43.066Z,8.36
2022-12-20T06:39:18.740Z,8.39
2022-12-20T06:41:57.494Z,8.36
2022-12-20T06:44:26.027Z,8.35
2022-12-20T06:46:54.324Z,8.30
2022-12-20T06:49:22.450Z,8.33
2022-12-20T06:51:50.844Z,8.29
2022-12-20T06:54:23.568Z,8.28
2022-12-20T06:56:51.891Z,8.27
2022-12-20T06:59:20.762Z,8.34
2022-12-20T07:01:49.018Z,8.30
2022-12-20T07:04:17.002Z,8.35
2022-12-20T07:06:44.710Z,8.33
2022-12-20T07:09:12.529Z,8.28
2022-12-20T07:11:43.249Z,8.34
2022-12-20T07:14:11.801Z,8.32
2022-12-20T07:16:41.592Z,8.30
2022-12-20T07:19:11.887Z,8.35
2022-12-20T07:21:39.664Z,8.29
2022-12-20T07:24:08.724Z,8.26
2022-12-20T07:26:36.554Z,8.27
2022-12-20T07:29:10.451Z,8.37
2022-12-20T07:31:43.978Z,8.32
2022-12-20T07:34:12.626Z,8.33
2022-12-20T07:39:16.297Z,8.28
2022-12-20T07:41:44.109Z,8.28
2022-12-20T07:44:18.541Z,8.31
2022-12-20T07:46:46.710Z,8.29
2022-12-20T07:49:14.629Z,8.28
2022-12-20T07:51:46.123Z,8.29
2022-12-20T07:54:18.850Z,8.34
2022-12-20T07:56:49.077Z,8.35
2022-12-20T07:59:21.411Z,8.35
2022-12-20T08:01:49.825Z,8.27
2022-12-20T08:04:21.065Z,8.36
2022-12-20T08:06:51.218Z,8.36
2022-12-20T08:09:19.839Z,8.42
2022-12-20T08:11:50.961Z,8.42
2022-12-20T08:14:20.883Z,8.34
2022-12-20T08:16:48.731Z,8.42
2022-12-20T08:19:18.723Z,8.41
2022-12-20T08:21:46.471Z,8.45
2022-12-20T08:24:14.220Z,8.51
2022-12-20T08:26:42.939Z,8.25
2022-12-20T08:29:10.817Z,8.45
2022-12-20T08:31:45.895Z,8.49
2022-12-20T08:34:17.421Z,8.50
2022-12-20T08:36:45.202Z,8.43
2022-12-20T08:39:13.020Z,8.47
2022-12-20T08:41:40.767Z,8.48
2022-12-20T08:44:09.472Z,8.29
2022-12-20T08:46:37.722Z,8.50
2022-12-20T08:49:07.006Z,8.50
2022-12-20T08:51:34.844Z,8.56
2022-12-20T08:54:02.833Z,8.30
2022-12-20T08:56:30.587Z,8.56
2022-12-20T08:58:58.598Z,8.55
2022-12-20T09:01:29.956Z,8.53
2022-12-20T09:03:57.820Z,8.37
2022-12-20T09:06:27.177Z,8.41
2022-12-20T09:08:55.670Z,8.56
2022-12-20T09:11:25.655Z,8.55
2022-12-20T09:13:55.609Z,8.52
2022-12-20T09:16:25.830Z,8.54
2022-12-20T09:19:00.784Z,8.57
2022-12-20T09:21:33.741Z,8.59
2022-12-20T09:24:01.581Z,8.51
2022-12-20T09:26:30.577Z,8.61
2022-12-20T09:28:58.788Z,8.70
2022-12-20T09:31:28.018Z,8.65
2022-12-20T09:33:57.875Z,8.85
2022-12-20T09:36:27.404Z,8.72
2022-12-20T09:38:56.854Z,8.85
2022-12-20T09:41:30.049Z,8.91
2022-12-20T09:43:59.655Z,8.94
2022-12-20T09:46:28.518Z,8.91
2022-12-20T09:48:58.247Z,8.87
2022-12-20T09:51:58.143Z,9.04
2022-12-20T09:54:38.412Z,9.07
2022-12-20T09:57:16.182Z,9.05
2022-12-20T09:59:49.427Z,9.10
2022-12-20T10:05:16.172Z,9.14
2022-12-20T10:07:54.508Z,9.03
2022-12-20T10:10:53.507Z,9.14
2022-12-20T10:13:39.157Z,8.85
2022-12-20T10:16:21.085Z,9.05
2022-12-20T10:19:04.376Z,9.06
2022-12-20T10:21:42.842Z,9.07
2022-12-20T10:24:15.642Z,9.11
2022-12-20T10:26:45.340Z,9.17
2022-12-20T10:29:13.283Z,9.22
2022-12-20T10:31:41.353Z,9.20
2022-12-20T10:34:09.268Z,9.23
2022-12-20T10:36:38.366Z,9.25
2022-12-20T10:39:07.928Z,9.27
2022-12-20T10:41:50.004Z,9.34
2022-12-20T10:44:21.301Z,9.41
2022-12-20T10:46:53.713Z,9.44
2022-12-20T10:49:27.931Z,9.48
2022-12-20T10:51:57.773Z,9.25
2022-12-20T10:54:31.540Z,9.48
2022-12-20T10:57:02.658Z,9.53
2022-12-20T10:59:35.470Z,9.61
2022-12-20T11:02:04.343Z,9.66
2022-12-20T11:04:34.913Z,9.56
2022-12-20T11:07:23.300Z,9.84
2022-12-20T11:09:55.670Z,9.64
2022-12-20T11:12:24.978Z,9.73
2022-12-20T11:15:10.732Z,9.95
2022-12-20T11:17:42.908Z,9.86
2022-12-20T11:20:25.657Z,9.93
2022-12-20T11:23:03.334Z,9.91
2022-12-20T11:25:40.538Z,9.94
2022-12-20T11:28:44.612Z,9.97
2022-12-20T11:31:17.518Z,9.88
2022-12-20T11:33:59.195Z,10.00
2022-12-20T11:36:39.396Z,10.00
2022-12-20T11:39:16.748Z,10.00
2022-12-20T11:42:00.110Z,10.02
2022-12-20T11:44:51.442Z,9.79
2022-12-20T11:47:40.802Z,10.01
2022-12-20T11:50:29.217Z,10.06
2022-12-20T11:53:01.175Z,10.03
2022-12-20T11:55:33.211Z,10.01
2022-12-20T11:58:21.504Z,10.00
2022-12-20T12:00:56.642Z,10.05
2022-12-20T12:03:31.265Z,9.98
2022-12-20T12:06:04.207Z,9.94
2022-12-20T12:08:43.596Z,10.09
2022-12-20T12:11:55.623Z,10.13
2022-12-20T12:14:07.017Z,10.07
2022-12-20T12:16:40.240Z,10.19
2022-12-20T12:19:12.154Z,10.18
2022-12-20T12:21:45.612Z,10.19
2022-12-20T12:24:22.845Z,10.15
2022-12-20T12:26:50.897Z,10.14
2022-12-20T12:29:19.943Z,9.94
2022-12-20T12:31:52.810Z,10.24
2022-12-20T12:34:33.749Z,10.07
2022-12-20T12:37:35.732Z,10.28
2022-12-20T12:40:23.096Z,10.26
2022-12-20T12:43:36.732Z,10.21
2022-12-20T12:46:14.226Z,10.18
2022-12-20T12:48:49.863Z,10.11
2022-12-20T12:51:28.178Z,10.07
2022-12-20T12:54:04.623Z,10.09
2022-12-20T12:56:45.140Z,10.10
2022-12-20T12:59:39.701Z,10.00
2022-12-20T13:02:49.777Z,9.94
2022-12-20T13:05:43.707Z,9.89
2022-12-20T13:08:19.431Z,9.99
2022-12-20T13:11:03.947Z,9.85
2022-12-20T13:13:34.572Z,9.93
2022-12-20T13:16:14.182Z,9.87
2022-12-20T13:19:00.142Z,9.80
2022-12-20T13:21:38.379Z,9.79
2022-12-20T13:24:57.033Z,9.83
2022-12-20T13:27:32.008Z,9.84
2022-12-20T13:30:25.717Z,9.85
2022-12-20T13:33:22.821Z,9.92
2022-12-20T13:36:02.585Z,9.92
2022-12-20T13:38:52.799Z,9.84
2022-12-20T13:41:34.839Z,9.63
2022-12-20T13:44:19.206Z,9.75
2022-12-20T13:46:53.557Z,9.79
2022-12-20T13:49:25.668Z,9.76
2022-12-20T13:52:14.097Z,9.71
2022-12-20T13:54:45.342Z,9.73
2022-12-20T13:57:17.841Z,9.79
2022-12-20T13:59:52.927Z,9.78
2022-12-20T14:02:27.574Z,9.75
2022-12-20T14:05:02.337Z,9.77
2022-12-20T14:07:32.399Z,9.80
2022-12-20T14:10:03.139Z,9.79
2022-12-20T14:12:36.820Z,9.77
2022-12-20T14:15:23.004Z,9.83
2022-12-20T14:17:59.701Z,9.83
2022-12-20T14:20:31.650Z,9.82
2022-12-20T14:23:06.498Z,9.86
2022-12-20T14:25:44.399Z,9.95
2022-12-20T14:28:36.948Z,9.91
2022-12-20T14:31:23.822Z,9.88
2022-12-20T14:33:52.062Z,9.83
2022-12-20T14:36:22.800Z,9.75
2022-12-20T14:38:52.242Z,9.74
2022-12-20T14:41:39.072Z,9.77
2022-12-20T14:44:19.958Z,9.80
2022-12-20T14:46:53.329Z,9.72
2022-12-20T14:49:26.848Z,9.72
2022-12-20T14:52:07.581Z,9.72
2022-12-20T14:57:30.678Z,9.66
2022-12-20T15:00:01.862Z,9.60
2022-12-20T15:02:36.429Z,9.70
2022-12-20T15:08:11.996Z,9.74
2022-12-20T15:10:42.106Z,9.65
2022-12-20T15:13:16.122Z,9.79
2022-12-20T15:15:44.540Z,9.71
2022-12-20T15:18:14.070Z,9.75
2022-12-20T15:20:43.025Z,9.77
2022-12-20T15:23:16.401Z,9.75
2022-12-20T15:25:45.356Z,9.72
2022-12-20T15:28:17.338Z,9.69
2022-12-20T15:30:46.139Z,9.70
2022-12-20T15:33:23.313Z,9.74
2022-12-20T15:35:51.768Z,9.77
2022-12-20T15:38:29.686Z,9.82
2022-12-20T15:41:15.621Z,9.82
2022-12-20T15:43:47.389Z,9.77
2022-12-20T15:46:24.238Z,9.70
2022-12-20T15:48:52.134Z,9.75
2022-12-20T15:51:25.196Z,9.75
2022-12-20T15:53:55.058Z,9.78
2022-12-20T15:56:25.336Z,9.82
2022-12-20T15:58:54.772Z,9.83
2022-12-20T16:01:25.377Z,9.78
2022-12-20T16:03:53.568Z,9.84
2022-12-20T16:06:21.566Z,9.92
2022-12-20T16:08:49.331Z,9.93
2022-12-20T16:11:22.253Z,9.93
2022-12-20T16:13:50.531Z,9.93
2022-12-20T16:16:21.188Z,10.08
2022-12-20T16:18:49.508Z,10.08
2022-12-20T16:21:18.713Z,10.00
2022-12-20T16:23:47.172Z,9.96
2022-12-20T16:26:16.386Z,9.93
2022-12-20T16:28:44.621Z,9.87
2022-12-20T16:31:18.863Z,9.81
2022-12-20T16:33:48.100Z,9.84
2022-12-20T16:36:16.312Z,9.80
2022-12-20T16:38:44.798Z,9.85
2022-12-20T16:41:15.022Z,9.84
2022-12-20T16:43:43.458Z,9.96
2022-12-20T16:46:13.693Z,9.88
2022-12-20T16:48:42.171Z,9.82
2022-12-20T16:51:23.847Z,9.81
2022-12-20T16:54:21.920Z,9.80
2022-12-20T16:56:39.833Z,9.74
2022-12-20T16:59:19.172Z,9.77
2022-12-20T17:01:50.449Z,9.90
2022-12-20T17:04:20.521Z,9.81
2022-12-20T17:06:49.841Z,9.87
2022-12-20T17:12:05.269Z,10.08
2022-12-20T17:14:33.011Z,10.11
2022-12-20T17:17:03.621Z,10.15
2022-12-20T17:19:31.399Z,10.16
2022-12-20T17:24:46.834Z,10.25
2022-12-20T17:27:14.540Z,10.27
2022-12-20T17:29:42.322Z,10.30
2022-12-20T17:32:21.074Z,10.39
2022-12-20T17:34:49.284Z,10.37
2022-12-20T17:37:18.659Z,10.39
2022-12-20T17:39:46.503Z,10.40
2022-12-20T17:42:14.656Z,10.41
2022-12-20T17:44:42.558Z,10.28
2022-12-20T17:47:11.634Z,10.32
2022-12-20T17:49:39.682Z,10.31
2022-12-20T17:52:07.422Z,10.41
2022-12-20T17:54:39.986Z,10.35
2022-12-20T17:57:13.901Z,10.32
2022-12-20T17:59:42.333Z,10.30
2022-12-20T18:02:22.768Z,10.31
2022-12-20T18:04:51.331Z,10.28
2022-12-20T18:07:19.326Z,10.27
2022-12-20T18:09:52.015Z,10.30
2022-12-20T18:12:19.738Z,10.42
2022-12-20T18:14:49.358Z,10.39
2022-12-20T18:17:17.520Z,10.39
2022-12-20T18:19:45.610Z,10.34
2022-12-20T18:22:14.258Z,10.34
2022-12-20T18:24:42.026Z,10.27
2022-12-20T18:27:11.518Z,10.26
2022-12-20T18:29:39.641Z,10.30
2022-12-20T18:32:07.354Z,10.23
2022-12-20T18:34:35.235Z,10.21
2022-12-20T18:37:05.525Z,10.35
2022-12-20T18:39:33.635Z,10.26
2022-12-20T18:42:01.417Z,10.23
2022-12-20T18:44:35.392Z,10.23
2022-12-20T18:47:03.879Z,10.12
2022-12-20T18:49:32.147Z,10.07
2022-12-20T18:52:00.795Z,10.15
2022-12-20T18:54:30.389Z,10.22
2022-12-20T18:56:58.576Z,10.15
2022-12-20T18:59:26.808Z,10.14
2022-12-20T19:01:56.196Z,10.21
2022-12-20T19:04:25.051Z,10.26
2022-12-20T19:06:53.623Z,10.26
2022-12-20T19:09:21.527Z,10.33
2022-12-20T19:11:56.340Z,10.28
2022-12-20T19:14:25.426Z,10.21
2022-12-20T19:16:53.318Z,10.20
2022-12-20T19:19:22.756Z,10.18
2022-12-20T19:21:50.492Z,10.31
2022-12-20T19:24:18.169Z,10.39
2022-12-20T19:26:45.896Z,10.44
2022-12-20T19:29:13.590Z,10.48
2022-12-20T19:31:41.378Z,10.56
2022-12-20T19:34:12.429Z,10.63
2022-12-20T19:36:43.785Z,10.63
2022-12-20T19:39:14.790Z,10.62
2022-12-20T19:41:42.517Z,10.60
2022-12-20T19:44:10.216Z,10.62
2022-12-20T19:46:38.491Z,10.51
2022-12-20T19:51:41.724Z,10.40
2022-12-20T19:54:10.957Z,10.37
2022-12-20T19:56:38.691Z,10.29
2022-12-20T19:59:06.511Z,10.36
2022-12-20T20:01:34.383Z,10.35
2022-12-20T20:04:03.832Z,10.27
2022-12-20T20:06:31.696Z,10.35
2022-12-20T20:09:00.865Z,10.38
2022-12-20T20:11:29.560Z,10.36
2022-12-20T20:13:57.688Z,10.34
2022-12-20T20:16:26.326Z,10.26
2022-12-20T20:18:54.333Z,10.17
2022-12-20T20:21:23.932Z,10.23
2022-12-20T20:23:52.742Z,10.29
2022-12-20T20:26:24.081Z,10.19
2022-12-20T20:28:52.158Z,10.16
2022-12-20T20:31:22.221Z,10.14
2022-12-20T20:33:50.204Z,10.09
2022-12-20T20:36:20.147Z,10.09
2022-12-20T20:38:47.962Z,10.14
2022-12-20T20:41:16.085Z,10.13
2022-12-20T20:43:45.560Z,10.16
2022-12-20T20:46:15.202Z,10.10
2022-12-20T20:48:43.754Z,10.17
2022-12-20T20:51:12.197Z,10.19
2022-12-20T20:53:40.387Z,10.10
2022-12-20T20:56:09.660Z,10.03
2022-12-20T20:58:37.465Z,10.01
2022-12-20T21:01:09.052Z,9.94
2022-12-20T21:03:37.302Z,9.86
2022-12-20T21:06:39.280Z,9.94
2022-12-20T21:08:54.990Z,9.91
2022-12-20T21:11:23.328Z,9.89
2022-12-20T21:13:51.305Z,9.87
2022-12-20T21:16:22.197Z,9.91
2022-12-20T21:18:51.742Z,9.93
2022-12-20T21:21:20.272Z,9.86
2022-12-20T21:23:48.551Z,9.87
2022-12-20T21:26:18.336Z,9.84
2022-12-20T21:28:46.434Z,9.83
2022-12-20T21:31:15.888Z,9.78
2022-12-20T21:33:45.855Z,9.80
2022-12-20T21:36:15.453Z,9.67
2022-12-20T21:38:43.447Z,9.75
2022-12-20T21:41:13.519Z,9.74
2022-12-20T21:43:41.288Z,9.82
2022-12-20T21:46:11.392Z,9.82
2022-12-20T21:48:39.719Z,9.78
2022-12-20T21:51:11.248Z,9.68
2022-12-20T21:53:43.010Z,9.77
2022-12-20T21:56:11.044Z,9.79
2022-12-20T21:58:39.002Z,9.79
2022-12-20T22:01:08.036Z,9.76
2022-12-20T22:03:36.856Z,9.75
2022-12-20T22:06:05.694Z,9.73
2022-12-20T22:08:35.412Z,9.72
2022-12-20T22:11:05.148Z,9.75
2022-12-20T22:13:40.835Z,9.75
2022-12-20T22:16:10.516Z,9.73
2022-12-20T22:18:39.242Z,9.73
2022-12-20T22:21:08.362Z,9.84
2022-12-20T22:23:38.187Z,9.81
2022-12-20T22:26:06.825Z,9.77
2022-12-20T22:28:34.614Z,9.81
2022-12-20T22:31:07.427Z,9.92
2022-12-20T22:33:35.574Z,9.82
2022-12-20T22:36:03.952Z,9.70
2022-12-20T22:38:32.154Z,9.58
2022-12-20T22:41:09.504Z,9.56
2022-12-20T22:43:37.502Z,9.58
2022-12-20T22:46:06.164Z,9.55
2022-12-20T22:48:34.562Z,9.52
2022-12-20T22:51:04.880Z,9.58
2022-12-20T22:53:33.245Z,9.58
2022-12-20T22:56:01.237Z,9.50
2022-12-20T22:58:31.305Z,9.55
2022-12-20T23:00:59.705Z,9.57
2022-12-20T23:03:28.660Z,9.55
2022-12-20T23:05:58.057Z,9.53
2022-12-20T23:08:27.437Z,9.58
2022-12-20T23:11:12.864Z,9.51
2022-12-20T23:13:59.750Z,9.60
2022-12-20T23:16:28.232Z,9.63
2022-12-20T23:18:56.016Z,9.62
2022-12-20T23:21:41.154Z,9.63
2022-12-20T23:24:09.511Z,9.56
2022-12-20T23:26:38.494Z,9.59
2022-12-20T23:29:09.268Z,9.64
2022-12-20T23:31:37.256Z,9.64
2022-12-20T23:34:05.474Z,9.62
2022-12-20T23:36:34.266Z,9.63
2022-12-20T23:39:02.470Z,9.61
2022-12-20T23:41:30.336Z,9.43
2022-12-20T23:43:58.147Z,9.60
2022-12-20T23:46:27.491Z,9.64
2022-12-20T23:48:55.214Z,9.64
2022-12-20T23:51:23.445Z,9.60
2022-12-20T23:53:52.368Z,9.56
2022-12-20T23:56:22.107Z,9.63
2022-12-20T23:58:53.893Z,9.66
